Time;durP1;ratioP1;P1;durP2;ratioP2;P2;SDS_P1;SDS_P2;PMS_P1;PMS_P2;Temp;Humidity;BMP_temperature;BMP_pressure;BME280_temperature;BME280_humidity;BME280_pressure;Samples;Min_cycle;Max_cycle;Signal;HPM_P1;HPM_P2
2023/10/31 00:01:27;;;;;;;0.90;0.40;;;11.90;99.90;;;;;;4982972;28;20469;-79
2023/10/31 00:03:53;;;;;;;0.80;0.40;;;11.20;99.90;;;;;;4985515;28;20475;-80
2023/10/31 00:06:18;;;;;;;0.70;0.40;;;11.90;99.90;;;;;;4992971;28;20497;-80
2023/10/31 00:08:44;;;;;;;2.17;0.50;;;11.50;99.90;;;;;;4992676;28;20462;-80
2023/10/31 00:11:09;;;;;;;0.80;0.50;;;11.80;99.90;;;;;;4990956;28;20403;-80
2023/10/31 00:13:35;;;;;;;1.20;0.40;;;11.80;99.90;;;;;;4992998;28;20404;-82
2023/10/31 00:16:00;;;;;;;0.50;0.40;;;11.30;99.90;;;;;;4988585;28;20392;-82
2023/10/31 00:18:26;;;;;;;0.80;0.50;;;11.90;99.90;;;;;;4992621;28;20402;-80
2023/10/31 00:20:52;;;;;;;0.57;0.40;;;11.80;99.90;;;;;;4994880;28;20391;-80
2023/10/31 00:23:17;;;;;;;1.40;0.60;;;11.80;99.90;;;;;;4976219;28;20442;-78
2023/10/31 00:25:43;;;;;;;0.83;0.50;;;11.80;99.90;;;;;;4992337;28;20406;-78
2023/10/31 00:28:08;;;;;;;1.83;0.60;;;11.60;99.90;;;;;;4983563;28;20432;-78
2023/10/31 00:30:34;;;;;;;1.00;0.40;;;11.90;99.90;;;;;;4986426;28;20411;-80
2023/10/31 00:32:59;;;;;;;0.50;0.37;;;11.70;99.90;;;;;;4993846;28;20448;-81
2023/10/31 00:35:25;;;;;;;1.50;0.30;;;11.90;99.90;;;;;;4960389;28;20400;-80
2023/10/31 00:37:50;;;;;;;1.33;0.50;;;11.90;99.90;;;;;;4987571;28;20412;-81
2023/10/31 00:40:17;;;;;;;1.30;0.40;;;11.80;99.90;;;;;;4987525;28;20454;-79
2023/10/31 00:42:43;;;;;;;0.70;0.50;;;11.90;99.90;;;;;;4967336;28;20916;-78
2023/10/31 00:45:09;;;;;;;0.73;0.50;;;11.90;99.90;;;;;;4986488;28;20418;-80
2023/10/31 00:47:35;;;;;;;1.25;0.50;;;11.90;99.90;;;;;;4994851;28;20409;-81
2023/10/31 00:50:01;;;;;;;2.70;0.40;;;11.70;99.90;;;;;;4995069;28;20394;-81
2023/10/31 00:52:27;;;;;;;0.80;0.60;;;11.90;99.90;;;;;;4995504;28;20382;-79
2023/10/31 00:54:52;;;;;;;1.47;0.50;;;11.90;99.90;;;;;;4996199;28;20390;-81
2023/10/31 00:57:18;;;;;;;2.00;0.60;;;11.80;99.90;;;;;;4986081;28;20396;-78
2023/10/31 00:59:45;;;;;;;2.05;0.50;;;11.80;99.90;;;;;;4974931;28;20515;-80
2023/10/31 01:02:10;;;;;;;1.30;0.50;;;11.80;99.90;;;;;;4977014;28;20426;-80
2023/10/31 01:04:37;;;;;;;0.90;0.50;;;11.80;99.90;;;;;;4995780;28;20517;-81
2023/10/31 01:07:02;;;;;;;1.20;0.50;;;11.90;99.90;;;;;;4988856;28;20413;-80
2023/10/31 01:09:28;;;;;;;2.20;0.80;;;11.80;99.90;;;;;;4961514;28;20769;-80
2023/10/31 01:11:54;;;;;;;1.10;0.50;;;11.90;99.90;;;;;;4974671;28;20396;-80
2023/10/31 01:14:19;;;;;;;2.40;0.70;;;11.50;99.90;;;;;;4978640;28;20395;-79
2023/10/31 01:16:45;;;;;;;0.60;0.43;;;11.90;99.90;;;;;;4980499;28;20899;-79
2023/10/31 01:19:10;;;;;;;1.40;0.40;;;11.80;99.90;;;;;;4973080;28;20495;-79
2023/10/31 01:21:36;;;;;;;1.00;0.50;;;11.90;99.90;;;;;;4966475;28;20904;-80
2023/10/31 01:24:01;;;;;;;0.70;0.40;;;11.80;99.90;;;;;;4958781;28;20400;-81
2023/10/31 01:26:27;;;;;;;1.87;0.60;;;11.60;99.90;;;;;;4965581;28;20424;-81
2023/10/31 01:28:52;;;;;;;0.50;0.40;;;12.10;99.90;;;;;;4993985;28;20410;-80
2023/10/31 01:31:18;;;;;;;0.77;0.50;;;12.40;99.90;;;;;;4967496;28;20396;-80
2023/10/31 01:33:43;;;;;;;0.65;0.57;;;11.60;99.90;;;;;;4974237;28;20400;-79
2023/10/31 01:36:11;;;;;;;1.00;0.60;;;11.70;99.90;;;;;;4988278;28;20418;-81
2023/10/31 01:38:36;;;;;;;0.60;0.50;;;11.70;99.90;;;;;;4993804;28;20403;-79
2023/10/31 01:41:02;;;;;;;0.90;0.60;;;11.50;99.90;;;;;;4975466;28;20774;-79
2023/10/31 01:43:35;;;;;;;1.60;0.50;;;11.70;99.90;;;;;;4976234;28;20410;-80
2023/10/31 01:46:01;;;;;;;0.60;0.50;;;11.70;99.90;;;;;;4992610;28;20482;-80
2023/10/31 01:48:32;;;;;;;1.10;0.40;;;11.60;99.90;;;;;;4980087;28;20415;-80
2023/10/31 01:50:59;;;;;;;2.10;0.50;;;11.60;99.90;;;;;;4956349;28;20491;-79
2023/10/31 01:53:26;;;;;;;1.25;0.55;;;11.10;99.90;;;;;;4956136;28;20909;-80
2023/10/31 01:55:55;;;;;;;2.17;0.55;;;11.10;99.90;;;;;;4974556;28;20416;-80
2023/10/31 01:58:25;;;;;;;0.90;0.60;;;11.00;99.90;;;;;;4983831;28;20895;-80
2023/10/31 02:00:51;;;;;;;1.00;0.60;;;11.20;99.90;;;;;;4992731;28;20485;-81
2023/10/31 02:03:17;;;;;;;1.63;0.45;;;11.20;99.90;;;;;;4963341;28;20396;-80
2023/10/31 02:05:42;;;;;;;1.60;0.68;;;11.20;99.90;;;;;;4973368;28;20423;-80
2023/10/31 02:08:08;;;;;;;1.35;0.60;;;11.20;99.90;;;;;;4973618;28;20765;-78
2023/10/31 02:10:34;;;;;;;1.10;0.67;;;11.20;99.90;;;;;;4973805;28;20388;-80
2023/10/31 02:13:11;;;;;;;1.17;0.60;;;11.20;99.90;;;;;;4973389;28;20781;-79
2023/10/31 02:15:37;;;;;;;1.17;0.77;;;11.30;99.90;;;;;;4963346;28;20398;-79
2023/10/31 02:18:02;;;;;;;2.97;0.90;;;11.30;99.90;;;;;;4978939;28;20391;-78
2023/10/31 02:20:28;;;;;;;2.10;0.60;;;11.30;99.90;;;;;;4955924;28;20400;-78
2023/10/31 02:22:53;;;;;;;2.00;0.83;;;11.30;99.90;;;;;;4985254;28;20413;-79
2023/10/31 02:25:19;;;;;;;1.40;0.83;;;11.30;99.90;;;;;;4992513;28;20418;-79
2023/10/31 02:27:45;;;;;;;1.97;0.77;;;11.30;99.90;;;;;;4992619;28;20443;-78
2023/10/31 02:30:11;;;;;;;1.10;0.60;;;11.30;99.90;;;;;;4974635;28;20411;-80
2023/10/31 02:32:36;;;;;;;1.50;0.70;;;11.30;99.90;;;;;;4981907;28;20404;-80
2023/10/31 02:35:02;;;;;;;1.80;0.60;;;11.20;99.90;;;;;;4991846;28;20905;-80
2023/10/31 02:37:28;;;;;;;2.03;0.70;;;11.30;99.90;;;;;;4992983;28;20397;-78
2023/10/31 02:39:53;;;;;;;1.30;1.00;;;11.30;99.90;;;;;;4991560;28;20406;-78
2023/10/31 02:42:19;;;;;;;2.80;0.70;;;11.30;99.90;;;;;;4992411;28;20477;-78
2023/10/31 02:44:44;;;;;;;1.20;0.90;;;11.30;99.90;;;;;;4991759;28;20429;-79
2023/10/31 02:47:10;;;;;;;2.00;0.83;;;11.30;99.90;;;;;;4991996;28;20406;-77
2023/10/31 02:49:35;;;;;;;1.97;0.70;;;11.30;99.90;;;;;;4990859;28;20395;-78
2023/10/31 02:52:01;;;;;;;1.60;0.80;;;11.30;99.90;;;;;;4992105;28;20402;-79
2023/10/31 02:54:26;;;;;;;2.50;1.00;;;11.20;99.90;;;;;;4975177;28;20804;-79
2023/10/31 02:56:52;;;;;;;2.05;0.80;;;11.20;99.90;;;;;;4983541;28;20404;-78
2023/10/31 02:59:17;;;;;;;1.30;0.60;;;11.00;99.90;;;;;;4954972;28;20388;-77
2023/10/31 03:01:43;;;;;;;1.90;0.70;;;11.20;99.90;;;;;;4971777;28;20734;-77
2023/10/31 03:04:09;;;;;;;1.40;0.70;;;11.20;99.90;;;;;;4975321;28;20868;-78
2023/10/31 03:06:34;;;;;;;2.28;0.90;;;11.20;99.90;;;;;;4979819;28;20415;-78
2023/10/31 03:09:00;;;;;;;1.27;0.70;;;11.30;99.90;;;;;;4977965;28;20392;-78
2023/10/31 03:11:26;;;;;;;3.70;1.00;;;11.20;99.90;;;;;;4975758;28;20380;-78
2023/10/31 03:13:56;;;;;;;1.85;0.68;;;11.30;99.90;;;;;;4976803;28;20430;-79
2023/10/31 03:16:22;;;;;;;1.73;0.60;;;11.30;99.90;;;;;;4979168;28;20390;-78
2023/10/31 03:18:47;;;;;;;0.90;0.60;;;11.30;99.90;;;;;;4996225;28;20804;-79
2023/10/31 03:21:14;;;;;;;2.40;0.80;;;11.50;99.90;;;;;;4993644;28;20922;-78
2023/10/31 03:23:40;;;;;;;1.90;0.70;;;11.10;99.90;;;;;;4972987;28;20404;-78
2023/10/31 03:26:06;;;;;;;2.05;0.70;;;11.00;99.90;;;;;;4978733;28;20450;-78
2023/10/31 03:28:32;;;;;;;3.88;0.90;;;11.30;99.90;;;;;;4980550;28;20397;-78
2023/10/31 03:30:57;;;;;;;1.60;0.60;;;11.40;99.90;;;;;;4975992;28;20396;-78
2023/10/31 03:33:23;;;;;;;2.80;1.20;;;11.10;99.90;;;;;;4977616;28;20393;-78
2023/10/31 03:35:49;;;;;;;2.90;0.68;;;11.40;99.90;;;;;;4996038;28;20387;-78
2023/10/31 03:38:15;;;;;;;2.05;0.70;;;11.40;99.90;;;;;;4976267;28;21126;-79
2023/10/31 03:40:41;;;;;;;2.97;0.70;;;11.10;99.90;;;;;;4991492;28;20495;-78
2023/10/31 03:43:06;;;;;;;2.95;0.90;;;11.40;99.90;;;;;;4975597;28;20399;-78
2023/10/31 03:45:32;;;;;;;1.00;0.60;;;11.40;99.90;;;;;;4994908;28;20463;-79
2023/10/31 03:47:58;;;;;;;2.00;0.60;;;11.20;99.90;;;;;;4978000;28;20417;-78
2023/10/31 03:50:23;;;;;;;2.75;0.70;;;11.40;99.90;;;;;;4994804;28;20390;-79
2023/10/31 03:52:49;;;;;;;2.75;1.00;;;11.40;99.90;;;;;;4995806;28;20755;-79
2023/10/31 03:55:15;;;;;;;2.85;0.90;;;11.30;99.90;;;;;;4980616;28;20440;-77
2023/10/31 03:57:40;;;;;;;1.30;0.60;;;11.40;99.90;;;;;;4962531;28;20400;-78
2023/10/31 04:00:07;;;;;;;2.60;0.90;;;11.40;99.90;;;;;;4964516;28;20385;-79
2023/10/31 04:02:33;;;;;;;2.83;1.10;;;11.40;99.90;;;;;;4981173;28;20404;-79
2023/10/31 04:04:58;;;;;;;2.07;0.83;;;11.20;99.90;;;;;;4976451;28;20882;-78
2023/10/31 04:07:24;;;;;;;4.40;0.90;;;11.30;99.90;;;;;;4977319;28;20382;-79
2023/10/31 04:09:50;;;;;;;1.23;0.83;;;11.30;99.90;;;;;;4977705;28;20429;-79
2023/10/31 04:12:16;;;;;;;2.00;0.70;;;11.20;99.90;;;;;;4992732;28;20429;-79
2023/10/31 04:14:42;;;;;;;2.53;0.80;;;11.20;99.90;;;;;;4975522;28;20451;-79
2023/10/31 04:17:07;;;;;;;2.42;0.80;;;11.30;99.90;;;;;;4957947;28;20396;-79
2023/10/31 04:19:33;;;;;;;3.57;0.90;;;11.10;99.90;;;;;;4974801;28;20396;-79
2023/10/31 04:21:58;;;;;;;1.27;0.90;;;11.30;99.90;;;;;;4975956;28;20447;-79
2023/10/31 04:24:24;;;;;;;2.60;0.90;;;11.30;99.90;;;;;;4974045;28;20421;-78
2023/10/31 04:26:49;;;;;;;3.58;1.00;;;11.30;99.90;;;;;;4993824;28;20410;-78
2023/10/31 04:29:15;;;;;;;2.33;0.70;;;11.40;99.90;;;;;;4992066;28;20473;-78
2023/10/31 04:31:40;;;;;;;2.90;0.80;;;11.20;99.90;;;;;;4977483;28;20392;-80
2023/10/31 04:34:06;;;;;;;5.18;1.10;;;11.40;99.90;;;;;;4975475;28;20869;-79
2023/10/31 04:36:31;;;;;;;2.70;1.00;;;11.30;99.90;;;;;;4958241;28;20836;-78
2023/10/31 04:38:57;;;;;;;3.07;1.07;;;11.40;99.90;;;;;;4957003;28;20487;-78
2023/10/31 04:41:22;;;;;;;1.80;0.80;;;11.40;99.90;;;;;;4983597;28;20458;-79
2023/10/31 04:43:48;;;;;;;2.00;0.80;;;11.00;99.90;;;;;;4980666;28;20416;-78
2023/10/31 04:46:14;;;;;;;3.20;1.10;;;11.40;99.90;;;;;;4965525;28;20412;-80
2023/10/31 04:48:39;;;;;;;5.97;1.40;;;11.30;99.90;;;;;;4975133;28;20388;-78
2023/10/31 04:51:05;;;;;;;3.70;1.20;;;11.50;99.90;;;;;;4977688;28;20423;-79
2023/10/31 04:53:32;;;;;;;3.70;1.00;;;11.50;99.90;;;;;;5004315;28;20758;-78
2023/10/31 04:55:58;;;;;;;3.80;1.00;;;11.50;99.90;;;;;;5005297;28;20413;-78
2023/10/31 04:58:23;;;;;;;2.13;1.00;;;11.50;99.90;;;;;;5003754;28;20391;-77
2023/10/31 05:00:49;;;;;;;1.87;0.70;;;11.20;99.90;;;;;;4995489;28;20408;-78
2023/10/31 05:03:15;;;;;;;3.13;1.02;;;11.50;99.90;;;;;;4970964;28;20771;-78
2023/10/31 05:05:40;;;;;;;5.60;1.08;;;11.30;99.90;;;;;;4994746;28;20433;-79
2023/10/31 05:08:06;;;;;;;2.80;0.80;;;11.60;99.90;;;;;;4994099;28;20393;-80
2023/10/31 05:10:31;;;;;;;4.80;0.90;;;11.60;99.90;;;;;;4988413;28;20408;-80
2023/10/31 05:12:57;;;;;;;2.25;0.80;;;11.60;99.90;;;;;;4957488;28;20899;-78
2023/10/31 05:15:22;;;;;;;4.80;0.90;;;11.60;99.90;;;;;;4974423;28;20403;-79
2023/10/31 05:17:48;;;;;;;3.20;1.17;;;11.40;99.90;;;;;;4974381;28;20393;-79
2023/10/31 05:20:13;;;;;;;3.10;1.00;;;11.70;99.90;;;;;;4982633;28;20405;-78
2023/10/31 05:22:41;;;;;;;5.20;1.23;;;11.60;99.90;;;;;;4992766;28;20458;-78
2023/10/31 05:25:06;;;;;;;2.28;0.90;;;11.70;99.90;;;;;;4975044;28;20382;-77
2023/10/31 05:27:32;;;;;;;2.67;0.90;;;11.70;99.90;;;;;;4991926;28;20731;-78
2023/10/31 05:29:58;;;;;;;3.40;1.00;;;11.70;99.90;;;;;;4970132;28;20415;-78
2023/10/31 05:32:23;;;;;;;2.33;1.10;;;11.70;99.90;;;;;;4973528;28;20826;-78
2023/10/31 05:34:49;;;;;;;3.23;0.80;;;11.40;99.90;;;;;;4956105;28;20396;-78
2023/10/31 05:37:14;;;;;;;5.43;1.00;;;11.80;99.90;;;;;;4968982;28;20910;-78
2023/10/31 05:39:40;;;;;;;3.58;1.08;;;11.60;99.90;;;;;;4993808;28;20857;-78
2023/10/31 05:42:05;;;;;;;4.30;1.10;;;11.70;99.90;;;;;;4993888;28;20418;-78
2023/10/31 05:44:31;;;;;;;6.50;1.00;;;11.70;99.90;;;;;;4993570;28;20398;-78
2023/10/31 05:46:56;;;;;;;3.70;1.70;;;11.70;99.90;;;;;;4975184;28;20491;-78
2023/10/31 05:49:22;;;;;;;5.30;1.02;;;11.70;99.90;;;;;;4998363;28;20431;-78
2023/10/31 05:51:51;;;;;;;2.90;1.00;;;11.60;99.90;;;;;;5000115;28;20394;-80
2023/10/31 05:54:17;;;;;;;1.30;0.80;;;11.70;99.90;;;;;;4983198;28;20400;-78
2023/10/31 05:56:44;;;;;;;4.50;1.15;;;11.70;99.90;;;;;;4975859;28;20390;-79
2023/10/31 05:59:13;;;;;;;3.20;1.00;;;11.30;99.90;;;;;;4957621;28;20404;-78
2023/10/31 06:01:38;;;;;;;4.40;1.30;;;11.70;99.90;;;;;;4973763;28;20400;-79
2023/10/31 06:04:04;;;;;;;2.28;1.10;;;11.60;99.90;;;;;;4981281;28;20439;-78
2023/10/31 06:06:32;;;;;;;2.85;0.88;;;12.00;99.90;;;;;;4974107;28;20466;-81
2023/10/31 06:08:58;;;;;;;3.25;0.88;;;11.30;99.90;;;;;;4981435;28;20466;-77
2023/10/31 06:11:23;;;;;;;3.90;0.90;;;11.60;99.90;;;;;;4993137;28;20429;-78
2023/10/31 06:13:49;;;;;;;4.43;0.90;;;11.70;99.90;;;;;;4987843;28;20498;-78
2023/10/31 06:16:14;;;;;;;2.55;1.27;;;11.60;99.90;;;;;;4982463;28;20398;-80
2023/10/31 06:18:40;;;;;;;2.53;1.30;;;11.60;99.90;;;;;;4987544;28;20396;-78
2023/10/31 06:21:08;;;;;;;2.10;1.00;;;11.60;99.90;;;;;;4972611;28;20488;-77
2023/10/31 06:23:35;;;;;;;2.90;1.50;;;11.60;99.90;;;;;;4972417;28;20750;-78
2023/10/31 06:26:00;;;;;;;3.70;1.00;;;11.40;99.90;;;;;;4993951;28;20445;-78
2023/10/31 06:28:26;;;;;;;2.53;1.05;;;11.20;99.90;;;;;;5002297;28;20398;-78
2023/10/31 06:30:51;;;;;;;3.40;1.20;;;11.50;99.90;;;;;;4994734;28;20444;-80
2023/10/31 06:33:17;;;;;;;3.43;0.90;;;11.50;99.90;;;;;;4993089;28;20829;-80
2023/10/31 06:35:42;;;;;;;2.60;1.27;;;11.50;99.90;;;;;;4978439;28;20496;-78
2023/10/31 06:38:08;;;;;;;3.17;0.90;;;11.50;99.90;;;;;;4977874;28;20392;-78
2023/10/31 06:40:33;;;;;;;3.53;1.00;;;11.50;99.90;;;;;;4992329;28;20410;-78
2023/10/31 06:42:59;;;;;;;2.53;0.90;;;11.50;99.90;;;;;;4977804;28;20407;-79
2023/10/31 06:45:24;;;;;;;3.33;1.00;;;11.50;99.90;;;;;;4992128;28;20410;-78
2023/10/31 06:47:50;;;;;;;2.70;0.90;;;11.60;99.90;;;;;;4992593;28;20482;-77
2023/10/31 06:50:16;;;;;;;2.10;1.10;;;11.50;99.90;;;;;;4974965;28;20404;-77
2023/10/31 06:52:41;;;;;;;3.50;1.40;;;11.10;99.90;;;;;;4978580;28;20388;-78
2023/10/31 06:55:07;;;;;;;2.60;0.77;;;11.50;99.90;;;;;;4957221;28;20388;-78
2023/10/31 06:57:33;;;;;;;2.13;1.00;;;11.60;99.90;;;;;;4991711;28;20394;-79
2023/10/31 06:59:58;;;;;;;2.90;0.80;;;12.10;99.90;;;;;;4975025;28;20414;-78
2023/10/31 07:02:25;;;;;;;1.80;0.70;;;11.60;99.90;;;;;;4975125;28;20394;-78
2023/10/31 07:04:51;;;;;;;1.70;0.70;;;11.60;99.90;;;;;;4973077;28;20397;-78
2023/10/31 07:07:16;;;;;;;2.50;1.00;;;11.60;99.90;;;;;;4969333;28;20418;-79
2023/10/31 07:09:42;;;;;;;2.20;0.80;;;11.60;99.90;;;;;;4992106;28;20513;-78
2023/10/31 07:12:08;;;;;;;1.92;0.80;;;11.60;99.90;;;;;;4974532;28;20401;-79
2023/10/31 07:14:33;;;;;;;3.20;0.90;;;11.70;99.90;;;;;;4992597;28;20378;-79
2023/10/31 07:16:59;;;;;;;1.40;0.80;;;11.80;99.90;;;;;;4987996;28;20482;-79
2023/10/31 07:19:24;;;;;;;3.07;0.93;;;11.80;99.90;;;;;;4975226;28;20449;-79
2023/10/31 07:21:50;;;;;;;2.80;1.00;;;12.10;99.90;;;;;;4990852;28;20791;-80
2023/10/31 07:24:15;;;;;;;2.70;0.90;;;11.80;99.90;;;;;;4975417;28;20417;-79
2023/10/31 07:26:41;;;;;;;4.35;0.77;;;11.70;99.90;;;;;;4978585;28;20800;-79
2023/10/31 07:29:06;;;;;;;2.60;0.90;;;11.70;99.90;;;;;;4955225;28;20844;-79
2023/10/31 07:31:32;;;;;;;2.70;0.80;;;11.80;99.90;;;;;;4972454;28;20391;-78
2023/10/31 07:33:58;;;;;;;2.38;0.70;;;11.70;99.90;;;;;;4982765;28;20398;-79
2023/10/31 07:36:23;;;;;;;2.70;1.00;;;11.80;99.90;;;;;;4993328;28;20469;-79
2023/10/31 07:38:49;;;;;;;1.90;0.60;;;11.90;99.90;;;;;;4957506;28;20405;-78
2023/10/31 07:41:14;;;;;;;1.53;0.60;;;11.80;99.90;;;;;;4968934;28;20397;-78
2023/10/31 07:43:40;;;;;;;1.20;0.67;;;11.80;99.90;;;;;;4991628;28;20394;-79
2023/10/31 07:46:05;;;;;;;1.23;0.83;;;11.70;99.90;;;;;;4999902;28;20954;-77
2023/10/31 07:48:31;;;;;;;3.25;0.70;;;11.80;99.90;;;;;;5013059;28;20393;-77
2023/10/31 07:50:57;;;;;;;2.42;0.85;;;11.70;99.90;;;;;;5014959;28;20812;-80
2023/10/31 07:53:22;;;;;;;1.60;0.80;;;11.70;99.90;;;;;;5015698;28;20385;-81
2023/10/31 07:55:48;;;;;;;1.77;0.65;;;11.70;99.90;;;;;;4961836;28;20424;-80
2023/10/31 07:58:14;;;;;;;1.80;0.90;;;11.80;99.90;;;;;;4959945;28;20785;-80
2023/10/31 08:00:40;;;;;;;1.10;0.60;;;11.80;99.90;;;;;;4976089;28;20482;-78
2023/10/31 08:03:06;;;;;;;1.60;0.60;;;11.80;99.90;;;;;;4975642;28;20561;-80
2023/10/31 08:05:32;;;;;;;1.47;0.80;;;11.80;99.90;;;;;;4976484;28;20496;-79
2023/10/31 08:07:58;;;;;;;2.70;0.60;;;11.80;99.90;;;;;;4958865;28;20391;-78
2023/10/31 08:10:23;;;;;;;1.20;0.60;;;11.90;99.90;;;;;;4975543;28;20423;-78
2023/10/31 08:12:49;;;;;;;0.90;0.60;;;11.90;99.90;;;;;;4975232;28;20392;-77
2023/10/31 08:15:16;;;;;;;1.30;0.80;;;11.60;99.90;;;;;;4977351;28;20880;-77
2023/10/31 08:17:42;;;;;;;2.20;0.60;;;11.80;99.90;;;;;;4977537;28;20396;-77
2023/10/31 08:20:08;;;;;;;1.20;0.60;;;11.80;99.90;;;;;;4975474;28;20396;-78
2023/10/31 08:22:54;;;;;;;1.97;0.70;;;11.90;99.90;;;;;;4959669;28;20455;-80
2023/10/31 08:25:20;;;;;;;2.10;0.70;;;11.60;99.90;;;;;;4975352;28;20416;-79
2023/10/31 08:27:45;;;;;;;1.30;0.70;;;11.80;99.90;;;;;;4976278;28;20395;-79
2023/10/31 08:30:11;;;;;;;1.80;0.60;;;11.90;99.90;;;;;;4975828;28;20483;-77
2023/10/31 08:32:37;;;;;;;2.20;0.70;;;11.80;99.90;;;;;;4975347;28;21160;-80
2023/10/31 08:35:03;;;;;;;1.40;0.70;;;11.80;99.90;;;;;;4975412;28;20384;-78
2023/10/31 08:37:29;;;;;;;0.90;0.80;;;11.80;99.90;;;;;;4976103;28;20388;-78
2023/10/31 08:39:54;;;;;;;2.80;0.90;;;12.70;99.90;;;;;;4976098;28;20396;-78
2023/10/31 08:42:20;;;;;;;2.50;0.90;;;11.90;99.90;;;;;;4966005;28;20448;-79
2023/10/31 08:44:45;;;;;;;1.50;0.90;;;11.80;99.90;;;;;;4995793;28;20399;-79
2023/10/31 08:47:12;;;;;;;1.30;0.87;;;11.90;99.90;;;;;;4996681;28;20410;-79
2023/10/31 08:49:37;;;;;;;1.20;0.70;;;11.90;99.90;;;;;;4996319;28;20465;-78
2023/10/31 08:52:04;;;;;;;1.67;0.60;;;11.90;99.90;;;;;;4995695;28;20481;-78
2023/10/31 08:54:29;;;;;;;2.00;0.90;;;12.00;99.90;;;;;;4977124;28;20762;-77
2023/10/31 08:56:55;;;;;;;1.20;0.70;;;12.00;99.90;;;;;;4994533;28;20394;-78
2023/10/31 08:59:20;;;;;;;2.10;1.03;;;12.00;99.90;;;;;;4983214;28;20459;-80
2023/10/31 09:01:46;;;;;;;2.10;0.70;;;12.40;99.90;;;;;;4974345;28;20454;-79
2023/10/31 09:04:11;;;;;;;1.45;0.70;;;12.10;99.90;;;;;;4975443;28;20454;-78
2023/10/31 09:06:37;;;;;;;1.50;0.80;;;12.00;99.90;;;;;;4976203;28;20406;-81
2023/10/31 09:09:03;;;;;;;1.00;0.70;;;12.10;99.90;;;;;;4983832;28;20414;-82
2023/10/31 09:11:29;;;;;;;2.42;0.70;;;12.10;99.90;;;;;;5002817;28;20477;-79
2023/10/31 09:13:54;;;;;;;1.60;0.65;;;12.20;99.90;;;;;;4997621;28;20426;-79
2023/10/31 09:16:20;;;;;;;2.20;0.60;;;12.20;99.90;;;;;;5003885;28;20402;-79
2023/10/31 09:18:46;;;;;;;1.33;0.77;;;12.30;99.90;;;;;;4994540;28;20890;-78
2023/10/31 09:21:12;;;;;;;1.83;0.50;;;12.30;99.90;;;;;;4994806;28;20389;-79
2023/10/31 09:23:37;;;;;;;2.00;0.77;;;12.30;99.90;;;;;;4993648;28;20775;-79
2023/10/31 09:26:03;;;;;;;1.67;0.80;;;12.30;99.90;;;;;;4995579;28;20432;-79
2023/10/31 09:28:29;;;;;;;1.40;0.70;;;12.30;99.90;;;;;;4977549;28;20500;-79
2023/10/31 09:30:55;;;;;;;0.97;0.60;;;12.30;99.90;;;;;;4993917;28;20878;-79
2023/10/31 09:33:21;;;;;;;1.88;0.70;;;12.30;99.90;;;;;;4977162;28;20424;-80
2023/10/31 09:35:46;;;;;;;1.80;0.90;;;12.40;99.90;;;;;;4983152;28;20433;-79
2023/10/31 09:38:12;;;;;;;1.83;0.60;;;12.50;99.90;;;;;;4998886;28;20405;-78
2023/10/31 09:40:38;;;;;;;1.33;0.63;;;12.50;99.90;;;;;;4998987;28;20473;-78
2023/10/31 09:43:04;;;;;;;0.70;0.50;;;12.60;99.90;;;;;;4992827;28;20433;-81
2023/10/31 09:45:30;;;;;;;1.40;0.63;;;12.70;99.90;;;;;;4980776;28;20465;-79
2023/10/31 09:47:57;;;;;;;2.33;0.60;;;12.80;99.90;;;;;;4993485;28;20445;-79
2023/10/31 09:50:22;;;;;;;1.23;0.50;;;12.60;99.90;;;;;;4981926;28;20434;-78
2023/10/31 09:52:49;;;;;;;1.80;0.60;;;12.60;99.90;;;;;;4992874;28;20393;-78
2023/10/31 09:55:15;;;;;;;1.60;0.60;;;12.70;99.90;;;;;;4992846;28;20397;-78
2023/10/31 09:57:40;;;;;;;1.80;0.70;;;12.70;99.90;;;;;;4993250;28;20383;-78
2023/10/31 10:00:06;;;;;;;1.33;0.53;;;12.80;99.90;;;;;;4975589;28;20393;-78
2023/10/31 10:02:32;;;;;;;1.13;0.60;;;12.80;99.90;;;;;;4993774;28;20874;-79
2023/10/31 10:04:58;;;;;;;1.43;0.70;;;12.90;99.90;;;;;;4976410;28;20401;-79
2023/10/31 10:07:24;;;;;;;1.50;0.70;;;12.90;99.90;;;;;;4981831;28;20409;-79
2023/10/31 10:09:50;;;;;;;1.58;0.60;;;12.50;99.90;;;;;;4993369;28;20473;-79
2023/10/31 10:12:16;;;;;;;1.67;0.60;;;13.10;99.90;;;;;;4992542;28;20390;-79
2023/10/31 10:14:45;;;;;;;2.80;0.65;;;13.10;99.90;;;;;;4975277;28;20390;-79
2023/10/31 10:17:24;;;;;;;1.55;0.70;;;13.20;99.90;;;;;;4993134;28;20897;-78
2023/10/31 10:20:07;;;;;;;1.40;0.70;;;13.20;99.90;;;;;;4993469;28;20414;-78
2023/10/31 10:22:39;;;;;;;1.15;0.60;;;13.20;99.90;;;;;;4991134;28;20406;-78
2023/10/31 10:25:14;;;;;;;1.30;0.70;;;13.40;99.90;;;;;;4991900;28;20422;-77
2023/10/31 10:27:40;;;;;;;3.25;0.63;;;13.30;99.90;;;;;;4992703;28;20390;-79
2023/10/31 10:30:08;;;;;;;1.80;0.80;;;13.30;99.90;;;;;;4975641;28;20399;-78
2023/10/31 10:32:33;;;;;;;1.93;0.70;;;13.30;99.90;;;;;;4992747;28;20428;-78
2023/10/31 10:35:00;;;;;;;1.10;0.67;;;13.30;99.90;;;;;;4973852;28;20455;-79
2023/10/31 10:37:27;;;;;;;3.88;0.80;;;13.40;99.90;;;;;;4981300;28;20474;-78
2023/10/31 10:39:55;;;;;;;1.90;0.60;;;13.50;99.90;;;;;;4992043;28;20455;-81
2023/10/31 10:42:33;;;;;;;1.33;0.60;;;13.20;99.90;;;;;;4995811;28;20394;-79
2023/10/31 10:45:06;;;;;;;1.80;0.70;;;13.40;99.90;;;;;;4999581;28;20395;-78
2023/10/31 10:47:34;;;;;;;1.05;0.65;;;13.40;99.90;;;;;;4990810;28;20394;-79
2023/10/31 10:50:03;;;;;;;1.70;0.68;;;13.30;99.90;;;;;;5006838;28;20806;-81
2023/10/31 10:52:39;;;;;;;1.23;0.60;;;13.60;99.90;;;;;;5005603;28;20390;-77
2023/10/31 10:55:10;;;;;;;2.07;0.70;;;13.50;99.90;;;;;;4995433;28;20387;-78
2023/10/31 10:57:44;;;;;;;2.20;1.15;;;13.50;99.90;;;;;;4959931;28;20411;-78
2023/10/31 11:00:12;;;;;;;4.00;0.90;;;13.50;99.90;;;;;;4965420;28;20469;-78
2023/10/31 11:02:43;;;;;;;1.75;0.90;;;13.50;99.90;;;;;;4993182;28;20398;-79
2023/10/31 11:05:09;;;;;;;0.90;0.68;;;13.60;99.90;;;;;;4993352;28;20417;-79
2023/10/31 11:07:39;;;;;;;1.10;0.70;;;13.60;99.90;;;;;;4993339;28;20465;-79
2023/10/31 11:10:06;;;;;;;1.15;0.70;;;13.60;99.90;;;;;;4992723;28;20883;-79
2023/10/31 11:12:32;;;;;;;1.08;0.63;;;14.50;99.90;;;;;;4990851;28;20437;-79
2023/10/31 11:15:00;;;;;;;2.10;0.60;;;14.30;99.90;;;;;;4973411;28;20391;-79
2023/10/31 11:17:29;;;;;;;1.77;0.50;;;14.30;99.90;;;;;;4985751;28;20395;-79
2023/10/31 11:19:56;;;;;;;1.80;0.60;;;14.00;99.90;;;;;;4975992;28;20424;-79
2023/10/31 11:22:22;;;;;;;1.70;0.60;;;13.80;99.90;;;;;;4991701;28;20410;-79
2023/10/31 11:24:49;;;;;;;3.43;0.60;;;13.70;99.90;;;;;;4973182;28;20386;-79
2023/10/31 11:27:17;;;;;;;0.95;0.60;;;13.70;99.90;;;;;;4997438;28;20437;-79
2023/10/31 11:29:44;;;;;;;1.30;0.60;;;13.60;99.90;;;;;;4991746;28;20483;-80
2023/10/31 11:32:10;;;;;;;1.05;0.60;;;13.60;99.90;;;;;;4978055;28;20872;-79
2023/10/31 11:34:39;;;;;;;2.35;0.73;;;13.60;99.90;;;;;;4977597;28;20392;-79
2023/10/31 11:37:27;;;;;;;0.90;0.60;;;13.40;99.90;;;;;;4977888;28;20395;-80
2023/10/31 11:40:20;;;;;;;0.65;0.50;;;13.50;99.90;;;;;;4977825;28;20403;-82
2023/10/31 11:42:57;;;;;;;1.40;0.60;;;13.50;99.90;;;;;;4980892;28;20388;-79
2023/10/31 11:45:47;;;;;;;2.08;0.57;;;13.50;99.90;;;;;;5015372;23;20431;-80
2023/10/31 11:48:13;;;;;;;2.33;0.80;;;13.50;99.90;;;;;;4987494;28;20394;-80
2023/10/31 11:50:39;;;;;;;2.20;0.80;;;13.40;99.90;;;;;;4995490;28;20497;-79
2023/10/31 11:53:11;;;;;;;1.90;0.70;;;13.60;99.90;;;;;;4996152;28;21071;-79
2023/10/31 11:55:40;;;;;;;1.20;0.90;;;13.50;99.90;;;;;;4990825;28;20396;-80
2023/10/31 11:58:20;;;;;;;1.00;0.50;;;13.30;99.90;;;;;;4970045;28;20410;-79
2023/10/31 12:00:47;;;;;;;1.40;0.80;;;13.50;99.90;;;;;;4958615;29;20834;-80
2023/10/31 12:03:14;;;;;;;1.60;0.70;;;13.50;99.90;;;;;;4959745;28;20453;-79
2023/10/31 12:05:40;;;;;;;1.40;0.77;;;13.40;99.90;;;;;;4959461;28;20412;-79
2023/10/31 12:08:06;;;;;;;2.00;0.63;;;13.50;99.90;;;;;;4970957;28;20422;-79
2023/10/31 12:10:31;;;;;;;0.90;0.70;;;13.60;99.90;;;;;;4972748;28;20468;-79
2023/10/31 12:12:58;;;;;;;1.90;0.70;;;13.60;99.90;;;;;;4985926;28;20471;-79
2023/10/31 12:15:24;;;;;;;1.90;0.70;;;13.60;99.90;;;;;;4957027;28;20401;-79
2023/10/31 12:17:50;;;;;;;1.20;0.60;;;13.70;99.90;;;;;;4956378;28;20394;-79
2023/10/31 12:20:16;;;;;;;1.00;0.50;;;13.70;99.90;;;;;;4956136;28;20473;-79
2023/10/31 12:22:43;;;;;;;1.60;0.60;;;13.10;99.90;;;;;;4938438;29;20397;-79
2023/10/31 12:25:10;;;;;;;0.50;0.40;;;13.60;99.90;;;;;;4956141;29;20394;-78
2023/10/31 12:27:49;;;;;;;1.35;0.50;;;13.40;99.90;;;;;;4939531;29;20802;-81
2023/10/31 12:30:21;;;;;;;1.00;0.40;;;13.10;99.90;;;;;;4956692;28;20798;-80
2023/10/31 12:32:55;;;;;;;0.52;0.40;;;13.40;99.90;;;;;;4956822;29;20397;-80
2023/10/31 12:35:22;;;;;;;0.65;0.40;;;13.40;99.90;;;;;;4956890;28;20950;-81
2023/10/31 12:37:49;;;;;;;0.90;0.52;;;13.40;99.90;;;;;;4957592;28;20413;-81
2023/10/31 12:40:20;;;;;;;0.70;0.50;;;13.30;99.90;;;;;;4938901;29;20397;-79
2023/10/31 12:42:48;;;;;;;1.50;0.40;;;13.30;99.90;;;;;;4955828;29;20470;-79
2023/10/31 12:45:14;;;;;;;0.82;0.50;;;13.20;99.90;;;;;;4971509;28;20467;-78